Time;durP1;ratioP1;P1;durP2;ratioP2;P2;SDS_P1;SDS_P2;PMS_P1;PMS_P2;Temp;Humidity;BMP_temperature;BMP_pressure;BME280_temperature;BME280_humidity;BME280_pressure;Samples;Min_cycle;Max_cycle;Signal;HPM_P1;HPM_P2
2022/10/29 00:00:50;;;;;;;1.50;1.50;;;13.20;95.20;12.50;96712.00;;;;5093467;28;20220;-54
2022/10/29 00:03:16;;;;;;;0.97;0.97;;;13.20;95.50;12.40;96756.00;;;;5093473;28;20202;-55
2022/10/29 00:05:43;;;;;;;2.33;1.37;;;13.20;95.50;12.50;96765.00;;;;5093244;28;20228;-55
2022/10/29 00:08:10;;;;;;;2.30;2.20;;;13.20;95.90;12.50;96761.00;;;;5093274;28;20203;-55
2022/10/29 00:10:36;;;;;;;1.80;1.60;;;13.10;95.60;12.50;96764.00;;;;5093357;28;20252;-55
2022/10/29 00:13:03;;;;;;;0.70;0.70;;;13.20;95.40;12.50;96752.00;;;;5093149;28;20647;-55
2022/10/29 00:15:29;;;;;;;1.43;1.37;;;13.20;95.00;12.60;96762.00;;;;5093054;28;20197;-55
2022/10/29 00:17:56;;;;;;;0.77;0.77;;;13.20;95.00;12.50;96748.00;;;;5092966;28;20230;-53
2022/10/29 00:20:22;;;;;;;1.17;1.07;;;13.10;94.70;12.50;96749.00;;;;5092996;28;20673;-54
2022/10/29 00:22:53;;;;;;;1.33;1.23;;;13.20;95.00;12.50;96743.00;;;;5092981;28;20202;-56
2022/10/29 00:25:22;;;;;;;0.70;0.70;;;13.10;94.90;12.40;96747.00;;;;5093151;28;20210;-54
2022/10/29 00:27:48;;;;;;;2.20;1.43;;;13.20;94.50;12.40;96750.00;;;;5093156;28;20199;-54
2022/10/29 00:30:15;;;;;;;3.33;2.13;;;13.10;94.80;12.40;96736.00;;;;5093148;28;20202;-54
2022/10/29 00:32:44;;;;;;;1.27;1.17;;;13.10;94.80;12.40;96752.00;;;;5093283;28;20547;-52
2022/10/29 00:35:10;;;;;;;1.00;1.00;;;13.10;95.10;12.40;96740.00;;;;5093159;28;20212;-54
2022/10/29 00:37:37;;;;;;;5.13;1.60;;;13.10;95.30;12.50;96756.00;;;;5093066;28;20222;-56
2022/10/29 00:40:08;;;;;;;1.60;1.50;;;13.10;95.50;12.50;96754.00;;;;5091989;28;20313;-53
2022/10/29 00:42:35;;;;;;;0.70;0.70;;;13.10;95.30;12.50;96744.00;;;;5093107;28;20214;-54
2022/10/29 00:45:01;;;;;;;1.30;1.27;;;13.10;95.40;12.50;96748.00;;;;5092751;28;20215;-54
2022/10/29 00:47:33;;;;;;;1.10;1.10;;;13.10;95.50;12.50;96750.00;;;;5092850;28;20205;-55
2022/10/29 00:50:07;;;;;;;1.03;1.03;;;13.20;95.20;12.60;96756.00;;;;5092812;28;20713;-55
2022/10/29 00:52:40;;;;;;;1.67;1.57;;;13.20;94.90;12.40;96741.00;;;;5092799;28;20221;-54
2022/10/29 00:55:10;;;;;;;2.33;1.57;;;13.10;94.00;12.50;96736.00;;;;5092884;28;20247;-55
2022/10/29 00:57:42;;;;;;;1.00;1.00;;;13.10;94.40;12.30;96752.00;;;;5092596;28;20222;-53
2022/10/29 01:00:13;;;;;;;0.83;0.83;;;13.00;93.90;12.30;96747.00;;;;5092173;28;20665;-53
2022/10/29 01:02:41;;;;;;;2.50;1.80;;;13.00;94.50;12.20;96736.00;;;;5096122;28;20646;-54
2022/10/29 01:05:11;;;;;;;1.60;1.50;;;12.90;94.90;12.20;96734.00;;;;5095979;28;20190;-55
2022/10/29 01:07:38;;;;;;;1.27;1.27;;;12.90;95.60;12.20;96731.00;;;;5096267;28;20255;-54
2022/10/29 01:10:06;;;;;;;1.10;1.10;;;12.90;95.90;12.30;96736.00;;;;5078202;28;20265;-55
2022/10/29 01:13:06;;;;;;;1.43;1.43;;;12.90;96.20;12.20;96740.00;;;;5095261;28;20194;-55
2022/10/29 01:15:43;;;;;;;1.90;1.80;;;12.90;95.60;12.10;96736.00;;;;5083628;28;20723;-54
2022/10/29 01:18:19;;;;;;;1.67;1.57;;;12.80;94.20;12.00;96730.00;;;;5095951;28;20594;-55
2022/10/29 01:21:27;;;;;;;1.27;1.17;;;12.70;94.00;12.00;96739.00;;;;5096032;28;20205;-54
2022/10/29 01:24:51;;;;;;;1.07;1.07;;;12.60;94.70;12.10;96740.00;;;;5073291;28;20217;-54
2022/10/29 01:27:55;;;;;;;2.13;1.70;;;12.70;95.20;12.10;96739.00;;;;5065447;28;20232;-58
2022/10/29 01:31:05;;;;;;;2.73;1.73;;;12.80;94.90;11.90;96734.00;;;;5095731;28;20220;-56
2022/10/29 01:33:43;;;;;;;1.17;1.17;;;12.60;94.70;11.80;96702.00;;;;5088820;28;20213;-56
2022/10/29 01:36:21;;;;;;;0.87;0.87;;;12.60;95.80;12.00;96728.00;;;;5077687;28;20203;-55
2022/10/29 01:38:59;;;;;;;0.80;0.80;;;12.60;96.00;12.00;96728.00;;;;5095391;28;20229;-55
2022/10/29 01:41:37;;;;;;;1.33;1.30;;;12.60;95.90;12.00;96721.00;;;;5077523;28;20604;-55
2022/10/29 01:44:31;;;;;;;0.97;0.97;;;12.60;95.90;12.00;96721.00;;;;5094410;28;20233;-58
2022/10/29 01:47:02;;;;;;;1.73;1.63;;;12.70;95.90;12.10;96714.00;;;;5095227;28;20533;-54
2022/10/29 01:49:37;;;;;;;1.73;1.63;;;12.70;95.70;12.20;96713.00;;;;5095335;28;20187;-54
2022/10/29 01:52:08;;;;;;;0.70;0.70;;;12.80;95.30;12.20;96707.00;;;;5095332;28;20234;-54
2022/10/29 01:54:39;;;;;;;1.37;1.27;;;12.90;96.40;12.20;96705.00;;;;5095172;28;20301;-54
2022/10/29 01:57:30;;;;;;;1.93;1.53;;;12.90;95.20;12.20;96698.00;;;;5095194;28;20261;-54
2022/10/29 02:00:02;;;;;;;0.70;0.70;;;13.00;94.70;12.20;96700.00;;;;5095060;28;20305;-55
2022/10/29 02:03:06;;;;;;;1.10;1.00;;;12.90;94.60;12.20;96702.00;;;;5095300;28;20255;-53
2022/10/29 02:05:41;;;;;;;1.40;0.80;;;12.90;94.70;12.30;96690.00;;;;5094853;28;20222;-55
2022/10/29 02:08:23;;;;;;;1.60;1.40;;;12.90;94.50;12.30;96667.00;;;;5077196;28;20202;-53
2022/10/29 02:10:59;;;;;;;1.00;1.00;;;12.90;94.50;12.30;96695.00;;;;5094762;28;20271;-53
2022/10/29 02:13:33;;;;;;;1.90;1.63;;;12.90;94.20;12.30;96692.00;;;;5094748;28;20214;-55
2022/10/29 02:16:05;;;;;;;1.00;1.00;;;12.90;95.00;12.30;96689.00;;;;5094981;28;20204;-54
2022/10/29 02:18:41;;;;;;;1.23;1.23;;;12.90;94.30;12.20;96690.00;;;;5094838;28;20218;-55
2022/10/29 02:21:08;;;;;;;1.37;1.37;;;12.90;94.40;12.10;96689.00;;;;5094735;28;20181;-54
2022/10/29 02:23:34;;;;;;;0.67;0.67;;;12.80;94.30;12.10;96692.00;;;;5076858;28;20540;-55
2022/10/29 02:26:01;;;;;;;2.20;1.50;;;12.80;94.70;12.00;96684.00;;;;5094709;28;20191;-54
2022/10/29 02:28:27;;;;;;;5.93;2.03;;;12.70;94.80;11.90;96682.00;;;;5094638;28;20187;-56
2022/10/29 02:30:53;;;;;;;1.97;1.87;;;12.60;95.30;11.90;96679.00;;;;5094702;28;20218;-55
2022/10/29 02:33:20;;;;;;;1.77;1.40;;;12.60;96.00;12.00;96672.00;;;;5093535;28;20209;-54
2022/10/29 02:35:47;;;;;;;1.77;1.67;;;12.60;96.30;12.00;96678.00;;;;5094529;28;20214;-55
2022/10/29 02:38:13;;;;;;;1.60;1.50;;;12.70;96.20;11.90;96676.00;;;;5094549;28;20215;-59
2022/10/29 02:40:40;;;;;;;1.00;1.00;;;12.70;95.80;11.90;96661.00;;;;5094526;28;20191;-54
2022/10/29 02:43:06;;;;;;;0.80;0.80;;;12.60;95.90;11.90;96662.00;;;;5094637;28;20635;-55
2022/10/29 02:45:35;;;;;;;0.70;0.70;;;12.60;96.00;11.80;96659.00;;;;5093649;28;20213;-55
2022/10/29 02:48:01;;;;;;;2.00;1.30;;;12.60;95.60;11.80;96659.00;;;;5093197;28;20250;-55
2022/10/29 02:50:28;;;;;;;3.80;1.37;;;12.50;95.80;11.80;96665.00;;;;5094387;28;20201;-54
2022/10/29 02:52:55;;;;;;;1.10;1.10;;;12.50;95.50;11.90;96651.00;;;;5094291;28;20190;-53
2022/10/29 02:55:24;;;;;;;1.80;1.70;;;12.60;95.60;12.00;96665.00;;;;5076460;28;20222;-54
2022/10/29 02:57:50;;;;;;;4.57;1.80;;;12.60;95.40;11.90;96668.00;;;;5094069;28;20633;-54
2022/10/29 03:00:17;;;;;;;1.17;1.17;;;12.60;95.00;11.90;96649.00;;;;5093918;28;20267;-55
2022/10/29 03:02:44;;;;;;;1.63;1.53;;;12.60;95.30;11.90;96659.00;;;;5094120;28;20195;-54
2022/10/29 03:05:12;;;;;;;1.73;1.50;;;12.60;95.20;11.90;96664.00;;;;5093869;28;20305;-53
2022/10/29 03:07:39;;;;;;;0.90;0.90;;;12.60;95.40;11.80;96663.00;;;;5093921;28;20202;-55
2022/10/29 03:10:07;;;;;;;1.40;1.40;;;12.50;95.40;11.80;96667.00;;;;5094066;28;20194;-56
2022/10/29 03:12:34;;;;;;;3.50;1.93;;;12.50;95.60;11.70;96661.00;;;;5093704;28;20218;-53
2022/10/29 03:15:00;;;;;;;3.97;1.30;;;12.40;95.50;11.60;96655.00;;;;5093824;28;20380;-54
2022/10/29 03:17:29;;;;;;;1.23;1.23;;;12.30;95.90;11.60;96658.00;;;;5075852;28;20222;-54
2022/10/29 03:19:55;;;;;;;0.90;0.90;;;12.40;96.50;11.60;96664.00;;;;5093639;28;20222;-55
2022/10/29 03:22:25;;;;;;;1.17;1.10;;;12.40;96.40;11.70;96669.00;;;;5093493;28;20223;-54
2022/10/29 03:24:52;;;;;;;1.00;1.00;;;12.30;96.50;11.70;96661.00;;;;5093448;28;20226;-54
2022/10/29 03:27:21;;;;;;;1.47;1.20;;;12.30;96.40;11.70;96654.00;;;;5093818;28;20213;-54
2022/10/29 03:29:49;;;;;;;1.10;1.03;;;12.40;96.20;11.60;96647.00;;;;5093518;28;20313;-55
2022/10/29 03:32:15;;;;;;;1.33;1.23;;;12.40;96.20;11.60;96651.00;;;;5093476;28;20206;-60
2022/10/29 03:34:42;;;;;;;2.53;2.07;;;12.30;96.00;11.60;96641.00;;;;5075635;28;20580;-53
2022/10/29 03:37:08;;;;;;;1.70;1.07;;;12.30;96.20;11.70;96645.00;;;;5093472;28;20235;-53
2022/10/29 03:39:37;;;;;;;1.57;1.47;;;12.40;96.30;11.70;96654.00;;;;5093294;28;20594;-53
2022/10/29 03:42:04;;;;;;;0.60;0.60;;;12.30;96.50;11.70;96639.00;;;;5093366;28;20271;-53
2022/10/29 03:44:31;;;;;;;3.17;1.67;;;12.40;96.40;11.80;96647.00;;;;5075582;28;20191;-53
2022/10/29 03:46:57;;;;;;;0.87;0.87;;;12.40;96.30;11.70;96645.00;;;;5093350;28;20248;-54
2022/10/29 03:49:24;;;;;;;0.60;0.60;;;12.40;96.10;11.80;96642.00;;;;5093489;28;20504;-54
2022/10/29 03:51:50;;;;;;;1.40;1.17;;;12.40;96.20;11.80;96649.00;;;;5093528;28;20190;-55
2022/10/29 03:54:16;;;;;;;0.97;0.97;;;12.40;96.10;11.70;96653.00;;;;5093246;28;20651;-53
2022/10/29 03:56:43;;;;;;;0.67;0.67;;;12.40;96.00;11.60;96648.00;;;;5093428;28;20217;-53
2022/10/29 03:59:09;;;;;;;0.90;0.90;;;12.30;96.40;11.70;96653.00;;;;5093159;28;20233;-55
2022/10/29 04:01:36;;;;;;;1.57;1.47;;;12.40;96.80;11.70;96649.00;;;;5093167;28;20199;-53
2022/10/29 04:04:02;;;;;;;1.70;1.60;;;12.40;96.20;11.70;96643.00;;;;5093132;28;20579;-53
2022/10/29 04:06:29;;;;;;;1.53;1.00;;;12.40;96.10;11.70;96652.00;;;;5093208;28;20197;-53
2022/10/29 04:08:57;;;;;;;3.50;1.70;;;12.40;96.10;11.60;96645.00;;;;5093111;28;20195;-53
2022/10/29 04:11:24;;;;;;;0.80;0.80;;;12.30;96.10;11.60;96635.00;;;;5093027;28;20690;-54
2022/10/29 04:13:52;;;;;;;1.07;1.07;;;12.30;96.50;11.50;96649.00;;;;5093107;28;20263;-53
2022/10/29 04:16:18;;;;;;;2.30;2.20;;;12.20;96.20;11.50;96646.00;;;;5092955;28;20672;-55
2022/10/29 04:18:46;;;;;;;0.70;0.70;;;12.30;97.00;11.50;96637.00;;;;5092980;28;20229;-54
2022/10/29 04:21:13;;;;;;;1.90;1.00;;;12.30;96.90;11.50;96637.00;;;;5075278;28;20236;-52
2022/10/29 04:23:39;;;;;;;1.90;1.80;;;12.30;96.90;11.50;96636.00;;;;5093176;28;20210;-53
2022/10/29 04:26:06;;;;;;;0.90;0.90;;;12.20;96.80;11.50;96635.00;;;;5093013;28;20198;-52
2022/10/29 04:28:32;;;;;;;0.70;0.70;;;12.20;96.60;11.60;96629.00;;;;5092932;28;20187;-52
2022/10/29 04:31:04;;;;;;;0.73;0.73;;;12.30;96.60;11.60;96642.00;;;;5093010;28;20331;-54
2022/10/29 04:33:30;;;;;;;0.83;0.83;;;;;11.50;96642.00;;;;5093124;28;20214;-54
2022/10/29 04:36:00;;;;;;;2.67;1.43;;;12.20;95.70;11.50;96643.00;;;;5094850;28;20229;-53
2022/10/29 04:38:26;;;;;;;1.63;1.53;;;12.20;96.10;11.50;96643.00;;;;5096415;28;20249;-56
2022/10/29 04:40:56;;;;;;;0.60;0.60;;;12.20;96.60;11.50;96646.00;;;;5095640;28;20222;-54
2022/10/29 04:43:22;;;;;;;1.47;1.37;;;12.20;96.50;11.50;96652.00;;;;5096293;28;20226;-55
2022/10/29 04:45:51;;;;;;;1.70;1.27;;;12.20;96.40;11.40;96644.00;;;;5096183;28;20202;-54
2022/10/29 04:48:19;;;;;;;0.93;0.93;;;12.10;96.30;11.50;96641.00;;;;5078204;28;20230;-55
2022/10/29 04:50:46;;;;;;;0.70;0.70;;;12.20;96.50;11.40;96646.00;;;;5096088;28;20195;-54
2022/10/29 04:53:13;;;;;;;1.00;1.00;;;12.10;96.40;11.40;96645.00;;;;5078405;28;20267;-55
2022/10/29 04:55:40;;;;;;;0.50;0.50;;;12.10;96.50;11.50;96636.00;;;;5095088;28;20230;-55
2022/10/29 04:58:12;;;;;;;1.97;1.70;;;12.10;96.30;11.50;96638.00;;;;5096026;28;20677;-55
2022/10/29 05:00:38;;;;;;;0.70;0.70;;;12.10;95.90;11.40;96650.00;;;;5095300;28;20544;-56
2022/10/29 05:03:05;;;;;;;0.97;0.97;;;12.10;95.80;11.40;96639.00;;;;5095934;28;20210;-56
2022/10/29 05:05:31;;;;;;;1.00;1.00;;;12.10;96.30;11.30;96648.00;;;;5095878;28;20195;-55
2022/10/29 05:07:59;;;;;;;1.43;1.33;;;12.10;96.10;11.30;96656.00;;;;5094999;28;20550;-54
2022/10/29 05:10:31;;;;;;;7.83;1.37;;;12.00;96.20;11.30;96652.00;;;;5094947;28;20202;-52
2022/10/29 05:12:59;;;;;;;1.77;1.27;;;12.00;95.80;11.20;96644.00;;;;5095925;28;20194;-53
2022/10/29 05:15:27;;;;;;;2.77;1.83;;;12.00;95.60;11.20;96649.00;;;;5095811;28;20670;-53
2022/10/29 05:17:53;;;;;;;1.20;1.20;;;11.90;95.50;11.20;96640.00;;;;5094748;28;20564;-52
2022/10/29 05:20:20;;;;;;;0.77;0.77;;;11.90;95.90;11.00;96622.00;;;;5095700;28;20228;-52
2022/10/29 05:22:46;;;;;;;0.90;0.90;;;11.90;94.80;10.90;96640.00;;;;5095607;28;20659;-52
2022/10/29 05:25:16;;;;;;;9.20;1.67;;;11.80;95.50;10.90;96639.00;;;;5095650;28;20211;-52
2022/10/29 05:27:43;;;;;;;0.97;0.97;;;11.70;95.70;10.70;96640.00;;;;5095628;28;20787;-52
2022/10/29 05:30:10;;;;;;;1.63;1.53;;;11.50;94.70;10.60;96645.00;;;;5095477;28;20202;-55
2022/10/29 05:32:36;;;;;;;0.73;0.73;;;11.40;95.50;10.60;96641.00;;;;5077614;28;20186;-52
2022/10/29 05:35:06;;;;;;;0.97;0.97;;;11.30;95.90;10.60;96641.00;;;;5077455;28;20597;-52
2022/10/29 05:37:32;;;;;;;1.23;1.17;;;11.30;96.10;10.60;96638.00;;;;5095432;28;20260;-54
2022/10/29 05:39:59;;;;;;;1.00;1.00;;;11.30;96.40;10.70;96637.00;;;;5095306;28;20279;-52
2022/10/29 05:42:25;;;;;;;1.47;1.47;;;11.40;96.50;10.70;96632.00;;;;5095517;28;20203;-53
2022/10/29 05:44:52;;;;;;;0.77;0.77;;;11.40;96.20;10.60;96636.00;;;;5095179;28;20516;-53
2022/10/29 05:47:19;;;;;;;3.03;1.43;;;11.40;97.10;10.70;96640.00;;;;5094801;28;20202;-52
2022/10/29 05:49:45;;;;;;;1.90;1.33;;;11.40;96.70;10.80;96637.00;;;;5095141;28;20207;-54
2022/10/29 05:52:11;;;;;;;4.40;1.27;;;11.50;96.30;10.80;96637.00;;;;5095202;28;20374;-53
2022/10/29 05:54:40;;;;;;;0.60;0.60;;;11.50;96.90;10.80;96642.00;;;;5095200;28;20274;-54
2022/10/29 05:57:07;;;;;;;1.07;1.00;;;11.50;96.70;10.80;96632.00;;;;5095073;28;20257;-53
2022/10/29 05:59:33;;;;;;;1.03;1.03;;;11.50;97.00;10.80;96644.00;;;;5094910;28;20207;-54
2022/10/29 06:02:00;;;;;;;1.50;1.43;;;11.50;97.50;10.90;96646.00;;;;5094918;28;20663;-53
2022/10/29 06:04:26;;;;;;;0.70;0.70;;;11.60;97.00;10.90;96644.00;;;;5095035;28;20191;-56
2022/10/29 06:06:53;;;;;;;1.00;1.00;;;11.60;97.00;10.90;96651.00;;;;5095031;28;20210;-57
2022/10/29 06:09:19;;;;;;;2.10;1.90;;;11.60;96.70;10.90;96639.00;;;;5095055;28;20229;-53
2022/10/29 06:11:46;;;;;;;1.60;1.50;;;11.60;96.80;10.90;96654.00;;;;5094902;28;20202;-57
2022/10/29 06:14:12;;;;;;;0.90;0.90;;;11.60;96.80;10.90;96649.00;;;;5094851;28;20190;-54
2022/10/29 06:16:40;;;;;;;4.53;2.13;;;11.60;96.70;10.90;96645.00;;;;5094829;28;20217;-53
2022/10/29 06:19:07;;;;;;;3.13;1.37;;;11.60;96.80;10.90;96644.00;;;;5094646;28;20231;-53
2022/10/29 06:21:34;;;;;;;0.70;0.70;;;11.60;96.50;10.80;96646.00;;;;5094821;28;20198;-53
2022/10/29 06:24:01;;;;;;;1.07;1.07;;;11.60;96.00;10.80;96637.00;;;;5094666;28;20260;-53
2022/10/29 06:26:27;;;;;;;0.70;0.70;;;11.50;96.10;10.60;96651.00;;;;5094982;28;20287;-54
2022/10/29 06:28:54;;;;;;;2.33;1.37;;;11.40;95.30;10.60;96639.00;;;;5094696;28;20587;-53
2022/10/29 06:31:20;;;;;;;7.00;0.80;;;11.30;95.70;10.40;96655.00;;;;5094648;28;20536;-53
2022/10/29 06:33:46;;;;;;;0.90;0.90;;;11.20;94.70;10.30;96650.00;;;;5093664;28;20293;-55
2022/10/29 06:36:13;;;;;;;0.87;0.87;;;11.00;95.80;10.40;96662.00;;;;5094531;28;20246;-54
2022/10/29 06:38:40;;;;;;;1.77;1.67;;;11.10;96.50;10.30;96652.00;;;;5094502;28;20224;-53
2022/10/29 06:41:08;;;;;;;0.87;0.87;;;11.00;96.20;10.30;96660.00;;;;5094383;28;20226;-54
2022/10/29 06:43:35;;;;;;;2.30;1.37;;;11.10;96.90;10.40;96657.00;;;;5094447;28;20218;-56
2022/10/29 06:46:04;;;;;;;1.10;1.10;;;11.10;97.30;10.50;96654.00;;;;5094237;28;20264;-53
2022/10/29 06:48:30;;;;;;;0.67;0.67;;;11.20;96.20;10.60;96666.00;;;;5094339;28;20194;-53
2022/10/29 06:50:58;;;;;;;1.20;1.20;;;11.30;96.00;10.70;96663.00;;;;5094256;28;20202;-54
2022/10/29 06:53:26;;;;;;;4.43;1.70;;;11.30;95.50;10.60;96655.00;;;;5094262;28;20206;-54
2022/10/29 06:55:54;;;;;;;1.57;1.47;;;11.30;94.90;10.70;96659.00;;;;5094254;28;20194;-53
2022/10/29 06:58:21;;;;;;;0.70;0.70;;;11.40;95.00;10.80;96670.00;;;;5093036;28;20214;-54
2022/10/29 07:00:50;;;;;;;0.80;0.80;;;11.50;94.50;10.80;96661.00;;;;5093396;28;20222;-53
2022/10/29 07:03:20;;;;;;;2.90;1.23;;;11.50;94.50;10.90;96661.00;;;;5094025;28;20309;-53
2022/10/29 07:05:56;;;;;;;1.50;1.30;;;11.60;94.20;11.00;96649.00;;;;5094099;28;20199;-54
2022/10/29 07:08:22;;;;;;;1.57;1.47;;;11.70;94.20;11.00;96658.00;;;;5076245;28;20619;-54
2022/10/29 07:10:51;;;;;;;1.50;1.40;;;11.70;94.00;11.00;96663.00;;;;5093187;28;20543;-59
2022/10/29 07:13:18;;;;;;;0.87;0.87;;;11.70;93.60;11.10;96653.00;;;;5093969;28;20707;-56
2022/10/29 07:15:45;;;;;;;0.90;0.90;;;11.70;93.70;11.10;96658.00;;;;5093817;28;20194;-56
2022/10/29 07:18:11;;;;;;;0.93;0.93;;;11.70;93.70;11.00;96662.00;;;;5094126;28;20267;-55
2022/10/29 07:20:41;;;;;;;0.93;0.93;;;11.70;93.60;11.20;96660.00;;;;5093775;28;20600;-55
2022/10/29 07:23:08;;;;;;;1.10;1.07;;;11.80;93.70;11.20;96656.00;;;;5093901;28;20222;-55
2022/10/29 07:25:37;;;;;;;0.93;0.93;;;11.80;93.80;11.30;96659.00;;;;5093830;28;20368;-55
2022/10/29 07:28:07;;;;;;;0.90;0.90;;;11.90;93.80;11.40;96663.00;;;;5093584;28;20207;-55
2022/10/29 07:30:34;;;;;;;1.00;1.00;;;11.90;93.50;11.50;96666.00;;;;5093683;28;20224;-54
2022/10/29 07:33:00;;;;;;;1.17;1.17;;;12.10;93.60;11.60;96667.00;;;;5094144;28;20201;-54
2022/10/29 07:35:27;;;;;;;4.30;1.93;;;12.30;93.30;11.80;96668.00;;;;5093797;28;20206;-59
2022/10/29 07:37:59;;;;;;;1.47;1.37;;;12.40;93.00;12.10;96663.00;;;;5093544;28;20623;-54
2022/10/29 07:40:27;;;;;;;0.87;0.87;;;12.60;95.00;12.30;96680.00;;;;5093602;28;20275;-54
2022/10/29 07:42:56;;;;;;;1.43;1.33;;;12.80;95.10;12.40;96671.00;;;;5093324;28;20242;-53
2022/10/29 07:45:23;;;;;;;1.50;0.90;;;13.00;94.30;12.50;96678.00;;;;5093523;28;20249;-54
2022/10/29 07:47:58;;;;;;;0.80;0.80;;;13.00;92.90;12.50;96675.00;;;;5093680;28;20223;-54
2022/10/29 07:50:25;;;;;;;1.77;1.67;;;13.10;92.40;12.50;96683.00;;;;5093309;28;20190;-54
2022/10/29 07:52:51;;;;;;;2.07;1.87;;;13.10;92.20;12.60;96674.00;;;;5093313;28;20222;-54
2022/10/29 07:55:18;;;;;;;1.33;1.23;;;13.10;92.10;12.60;96671.00;;;;5093378;28;20216;-56
2022/10/29 07:57:44;;;;;;;10.50;1.30;;;13.30;91.60;12.70;96668.00;;;;5092398;28;20202;-55
2022/10/29 08:00:13;;;;;;;1.00;1.00;;;13.30;92.10;12.80;96668.00;;;;5075643;28;20842;-55
2022/10/29 08:02:41;;;;;;;1.67;1.57;;;13.40;91.80;12.90;96670.00;;;;5093329;28;20198;-55
2022/10/29 08:05:08;;;;;;;1.03;1.03;;;13.50;92.00;13.00;96677.00;;;;5093427;28;20248;-55
2022/10/29 08:07:34;;;;;;;2.33;1.87;;;13.50;92.00;13.00;96674.00;;;;5093164;28;20235;-55
2022/10/29 08:10:04;;;;;;;1.20;1.20;;;13.60;91.50;13.10;96669.00;;;;5095307;28;20202;-54
2022/10/29 08:12:33;;;;;;;1.50;1.40;;;13.70;92.00;13.30;96666.00;;;;5096730;28;20194;-56
2022/10/29 08:14:59;;;;;;;1.80;1.43;;;13.80;92.50;13.30;96662.00;;;;5096843;28;20692;-54
2022/10/29 08:17:28;;;;;;;2.03;1.87;;;13.90;92.90;13.50;96671.00;;;;5096845;28;20195;-55
2022/10/29 08:19:55;;;;;;;1.00;1.00;;;14.10;92.70;13.50;96673.00;;;;5096601;28;20222;-55
2022/10/29 08:22:22;;;;;;;0.70;0.70;;;14.10;92.30;13.30;96675.00;;;;5078789;28;20207;-52
2022/10/29 08:24:48;;;;;;;6.40;1.43;;;14.00;92.80;13.40;96672.00;;;;5096596;28;20359;-56
2022/10/29 08:27:15;;;;;;;0.80;0.80;;;14.00;93.50;13.60;96670.00;;;;5096546;28;20202;-55
2022/10/29 08:29:41;;;;;;;0.87;0.87;;;14.10;93.80;13.70;96668.00;;;;5096508;28;20824;-54
2022/10/29 08:32:07;;;;;;;1.27;1.27;;;14.20;93.30;13.90;96672.00;;;;5096668;28;20247;-52
2022/10/29 08:34:34;;;;;;;1.07;1.07;;;14.40;93.10;14.00;96672.00;;;;5096425;28;20655;-52
2022/10/29 08:37:01;;;;;;;2.10;1.47;;;14.50;92.90;14.20;96668.00;;;;5096313;28;20274;-53
2022/10/29 08:39:30;;;;;;;1.00;1.00;;;14.60;92.60;14.30;96666.00;;;;5096183;28;20683;-53
2022/10/29 08:42:14;;;;;;;1.87;1.77;;;14.80;92.40;14.60;96663.00;;;;5096336;28;20205;-53
2022/10/29 08:45:13;;;;;;;13.27;1.77;;;15.00;92.30;14.70;96669.00;;;;5096154;28;20540;-52
2022/10/29 08:48:03;;;;;;;2.37;2.13;;;15.20;91.20;14.90;96676.00;;;;5096025;28;20195;-54
2022/10/29 08:50:39;;;;;;;2.63;1.63;;;15.40;90.20;15.00;96671.00;;;;5096100;28;20210;-54
2022/10/29 08:53:16;;;;;;;1.53;1.17;;;15.60;89.40;15.20;96664.00;;;;5096145;28;20195;-54
2022/10/29 08:55:45;;;;;;;1.17;1.07;;;15.70;88.90;15.50;96672.00;;;;5095918;28;20223;-53
2022/10/29 08:58:30;;;;;;;1.17;1.17;;;15.90;84.90;15.50;96673.00;;;;5078570;28;20567;-53
2022/10/29 09:00:58;;;;;;;5.60;2.30;;;15.90;85.90;15.60;96674.00;;;;5096062;28;20285;-54
2022/10/29 09:03:28;;;;;;;1.07;1.07;;;16.10;85.60;15.70;96670.00;;;;5095945;28;20255;-54
2022/10/29 09:06:08;;;;;;;7.63;1.20;;;16.20;84.80;15.90;96674.00;;;;5095934;28;20222;-54
2022/10/29 09:08:54;;;;;;;1.17;1.17;;;16.30;83.70;15.90;96671.00;;;;5095887;28;20591;-53
2022/10/29 09:11:47;;;;;;;0.70;0.70;;;16.40;82.50;16.10;96671.00;;;;5095881;28;20235;-54
2022/10/29 09:14:43;;;;;;;0.80;0.80;;;16.60;83.50;16.30;96650.00;;;;5095782;28;20332;-55
2022/10/29 09:17:22;;;;;;;1.53;1.43;;;;;16.40;96669.00;;;;5091634;28;20679;-56
2022/10/29 09:20:04;;;;;;;1.77;1.67;;;16.90;79.20;16.60;96669.00;;;;5095751;28;20654;-53
2022/10/29 09:22:46;;;;;;;1.53;1.43;;;17.10;79.20;16.80;96666.00;;;;5094605;28;20267;-53
2022/10/29 09:25:23;;;;;;;1.00;1.00;;;17.20;78.90;16.90;96655.00;;;;5095543;28;20194;-54
2022/10/29 09:28:10;;;;;;;1.40;1.30;;;17.30;78.00;17.00;96656.00;;;;5095469;28;20314;-55
2022/10/29 09:30:46;;;;;;;1.13;1.13;;;17.40;75.30;17.30;96658.00;;;;5095336;28;20280;-54
2022/10/29 09:33:18;;;;;;;0.70;0.70;;;17.60;76.40;17.40;96660.00;;;;5095405;28;20232;-52
2022/10/29 09:35:48;;;;;;;1.37;1.30;;;17.80;77.00;17.60;96658.00;;;;5095455;28;20222;-54
2022/10/29 09:38:18;;;;;;;2.13;1.33;;;;;17.80;96654.00;;;;5094243;28;20226;-55
2022/10/29 09:40:45;;;;;;;8.67;1.10;;;18.20;73.50;17.90;96649.00;;;;5077404;28;20230;-55
2022/10/29 09:43:37;;;;;;;2.40;1.07;;;18.20;74.80;18.00;96643.00;;;;5095333;28;20271;-53
2022/10/29 09:46:21;;;;;;;1.13;1.07;;;18.50;75.30;18.20;96645.00;;;;5095153;28;20572;-53
2022/10/29 09:48:58;;;;;;;1.27;1.23;;;;;18.40;96615.00;;;;5095197;28;20279;-53
2022/10/29 09:51:41;;;;;;;1.17;1.17;;;18.80;72.90;18.50;96649.00;;;;5077356;28;20198;-55
2022/10/29 09:54:08;;;;;;;1.27;1.27;;;;;18.70;96649.00;;;;5095119;28;20631;-53
2022/10/29 09:56:40;;;;;;;0.93;0.93;;;19.10;68.60;18.90;96659.00;;;;5095206;28;20230;-53
2022/10/29 09:59:24;;;;;;;1.10;1.10;;;19.30;68.80;19.00;96658.00;;;;5094877;28;20218;-53
2022/10/29 10:01:51;;;;;;;5.20;1.20;;;;;19.20;96656.00;;;;5095056;28;20242;-53
2022/10/29 10:04:22;;;;;;;1.57;1.27;;;;;19.40;96645.00;;;;5094954;28;20225;-55
2022/10/29 10:07:07;;;;;;;1.97;1.63;;;;;19.60;96654.00;;;;5094882;28;20195;-53
2022/10/29 10:09:51;;;;;;;1.43;1.37;;;;;19.70;96641.00;;;;5092917;28;20252;-53
2022/10/29 10:12:21;;;;;;;1.43;1.33;;;;;19.90;96645.00;;;;5094839;28;20214;-52
2022/10/29 10:15:03;;;;;;;1.57;1.47;;;;;20.10;96644.00;;;;5077055;28;20222;-53
2022/10/29 10:17:55;;;;;;;1.10;1.10;;;;;20.20;96649.00;;;;5094881;28;20202;-53
2022/10/29 10:20:31;;;;;;;1.10;1.10;;;;;20.30;96639.00;;;;5076852;28;20223;-53
2022/10/29 10:22:57;;;;;;;2.00;1.87;;;;;20.50;96641.00;;;;5094679;28;20202;-54
2022/10/29 10:25:33;;;;;;;1.23;1.20;;;;;20.50;96645.00;;;;5094698;28;20194;-53
2022/10/29 10:28:14;;;;;;;1.23;1.10;;;;;20.60;96643.00;;;;5076925;28;20198;-54
2022/10/29 10:30:42;;;;;;;2.00;1.33;;;;;20.80;96636.00;;;;5076909;28;20218;-54
2022/10/29 10:33:22;;;;;;;2.37;1.80;;;;;21.20;96640.00;;;;5094510;28;20202;-53
2022/10/29 10:35:49;;;;;;;0.97;0.67;;;;;21.40;96638.00;;;;5076961;28;20232;-54
2022/10/29 10:38:16;;;;;;;1.00;1.00;;;;;21.60;96637.00;;;;5094612;28;20277;-54
2022/10/29 10:40:43;;;;;;;1.03;1.03;;;;;21.80;96638.00;;;;5094195;28;20226;-55
2022/10/29 10:43:20;;;;;;;0.95;0.95;;;;;21.90;96639.00;;;;5094367;28;20198;-54
2022/10/29 10:45:55;;;;;;;1.75;1.65;;;;;22.10;96631.00;;;;5094358;28;20699;-54
2022/10/29 10:48:25;;;;;;;0.98;0.98;;;;;22.40;96629.00;;;;5094364;28;20206;-54
2022/10/29 10:51:07;;;;;;;0.88;0.88;;;;;22.70;96620.00;;;;5094362;28;20729;-54
2022/10/29 10:53:39;;;;;;;6.88;1.75;;;;;22.90;96626.00;;;;5094293;28;20195;-55
2022/10/29 10:56:13;;;;;;;0.60;0.60;;;;;23.20;96619.00;;;;5094375;28;20635;-55
2022/10/29 10:58:45;;;;;;;0.60;0.60;;;;;23.50;96613.00;;;;5094103;28;20536;-52
2022/10/29 11:01:17;;;;;;;1.00;1.00;;;;;23.80;96609.00;;;;5076393;28;20267;-61
2022/10/29 11:03:49;;;;;;;1.75;1.63;;;24.10;45.20;24.00;96614.00;;;;5094115;28;20219;-55
2022/10/29 11:06:21;;;;;;;0.95;0.77;;;24.10;47.10;24.20;96604.00;;;;5094089;28;20250;-53
2022/10/29 11:08:56;;;;;;;11.27;1.67;;;24.40;46.30;24.40;96598.00;;;;5093933;28;20232;-53
2022/10/29 11:11:29;;;;;;;1.58;1.50;;;24.60;42.40;24.50;96599.00;;;;5093998;28;20284;-55
2022/10/29 11:14:02;;;;;;;0.85;0.85;;;;;24.90;96598.00;;;;5093976;28;20310;-53
2022/10/29 11:16:37;;;;;;;1.13;1.13;;;24.90;37.30;25.10;96594.00;;;;5094071;28;20208;-53
2022/10/29 11:19:17;;;;;;;0.88;0.88;;;25.10;35.90;25.30;96596.00;;;;5093803;28;20203;-57